Time;durP1;ratioP1;P1;durP2;ratioP2;P2;SDS_P1;SDS_P2;PMS_P1;PMS_P2;Temp;Humidity;BMP_temperature;BMP_pressure;BME280_temperature;BME280_humidity;BME280_pressure;Samples;Min_cycle;Max_cycle;Signal;HPM_P1;HPM_P2
2022/03/01 00:01:49;;;;;;;;;;;20.50;99.90;;;;;;5073158;28;20362;-74
2022/03/01 00:04:16;;;;;;;;;;;20.40;99.90;;;;;;5073374;28;19961;-74
2022/03/01 00:06:42;;;;;;;;;;;20.40;99.90;;;;;;5072597;28;19908;-74
2022/03/01 00:09:09;;;;;;;;;;;20.50;99.90;;;;;;5073191;28;20355;-76
2022/03/01 00:11:35;;;;;;;;;;;20.50;99.90;;;;;;5073115;28;19908;-73
2022/03/01 00:14:02;;;;;;;;;;;20.50;99.90;;;;;;5073178;28;19909;-75
2022/03/01 00:16:29;;;;;;;;;;;20.50;99.90;;;;;;5073003;28;19908;-75
2022/03/01 00:18:57;;;;;;;;;;;20.60;99.90;;;;;;5072985;28;19908;-75
2022/03/01 00:21:24;;;;;;;;;;;20.60;99.90;;;;;;5072990;28;19912;-76
2022/03/01 00:23:51;;;;;;;;;;;20.80;99.90;;;;;;5073054;28;19982;-73
2022/03/01 00:26:17;;;;;;;;;;;20.90;99.90;;;;;;5072983;28;19966;-75
2022/03/01 00:28:45;;;;;;;;;;;20.90;99.90;;;;;;5072075;28;20335;-75
2022/03/01 00:31:11;;;;;;;;;;;20.90;99.90;;;;;;5072800;28;20354;-75
2022/03/01 00:33:38;;;;;;;;;;;20.90;99.90;;;;;;5072745;28;20003;-73
2022/03/01 00:36:05;;;;;;;;;;;20.80;99.90;;;;;;5072708;28;19909;-74
2022/03/01 00:38:31;;;;;;;;;;;20.90;99.90;;;;;;5072661;28;19908;-75
2022/03/01 00:40:58;;;;;;;;;;;20.90;99.90;;;;;;5072611;28;19999;-75
2022/03/01 00:43:25;;;;;;;;;;;21.00;99.90;;;;;;5072596;28;19982;-74
2022/03/01 00:45:52;;;;;;;;;;;21.00;99.90;;;;;;5072755;28;19999;-76
2022/03/01 00:48:19;;;;;;;;;;;20.90;99.90;;;;;;5072797;28;20388;-76
2022/03/01 00:50:46;;;;;;;;;;;20.90;99.90;;;;;;5072074;28;19958;-75
2022/03/01 00:53:13;;;;;;;;;;;20.80;99.90;;;;;;5072600;28;19908;-73
2022/03/01 00:55:40;;;;;;;;;;;20.80;99.90;;;;;;5072676;28;19909;-75
2022/03/01 00:58:06;;;;;;;;;;;20.80;99.90;;;;;;5072692;28;20259;-75
2022/03/01 01:00:33;;;;;;;;;;;20.90;99.90;;;;;;5072448;28;19999;-74
2022/03/01 01:03:01;;;;;;;;;;;21.00;99.90;;;;;;5071976;28;20362;-72
2022/03/01 01:05:27;;;;;;;;;;;21.00;99.90;;;;;;5072388;28;20247;-72
2022/03/01 01:07:54;;;;;;;;;;;21.00;99.90;;;;;;5072687;28;19908;-74
2022/03/01 01:10:22;;;;;;;;;;;20.90;99.90;;;;;;5072428;28;19908;-75
2022/03/01 01:12:48;;;;;;;;;;;20.80;99.90;;;;;;5072283;28;19913;-75
2022/03/01 01:15:16;;;;;;;;;;;21.00;99.90;;;;;;5072481;28;19916;-75
2022/03/01 01:17:43;;;;;;;;;;;21.10;99.90;;;;;;5072834;28;19919;-76
2022/03/01 01:20:10;;;;;;;;;;;21.30;99.90;;;;;;5076390;28;19909;-76
2022/03/01 01:22:39;;;;;;;;;;;21.50;99.90;;;;;;5076460;28;19917;-75
2022/03/01 01:25:10;;;;;;;;;;;21.80;99.90;;;;;;5076450;28;20346;-77
2022/03/01 01:27:37;;;;;;;;;;;21.50;99.90;;;;;;5076538;28;19995;-75
2022/03/01 01:30:05;;;;;;;;;;;21.50;99.90;;;;;;5108901;28;19919;-74
2022/03/01 01:32:32;;;;;;;;;;;21.30;99.90;;;;;;5076444;28;19909;-74
2022/03/01 01:34:58;;;;;;;;;;;21.10;99.90;;;;;;5075960;28;19913;-74
2022/03/01 01:37:25;;;;;;;;;;;20.90;99.90;;;;;;5108875;28;20370;-75
2022/03/01 01:39:52;;;;;;;;;;;20.90;99.90;;;;;;5076121;28;19915;-75
2022/03/01 01:42:18;;;;;;;;;;;20.90;99.90;;;;;;5076044;28;19916;-76
2022/03/01 01:44:45;;;;;;;;;;;21.00;99.90;;;;;;5076034;28;20019;-73
2022/03/01 01:47:12;;;;;;;;;;;21.10;99.90;;;;;;5076799;28;19908;-74
2022/03/01 01:49:38;;;;;;;;;;;21.00;99.90;;;;;;5075557;28;19951;-75
2022/03/01 01:52:05;;;;;;;;;;;21.10;99.90;;;;;;5075878;28;19909;-75
2022/03/01 01:54:32;;;;;;;;;;;21.20;99.90;;;;;;5075871;28;20105;-76
2022/03/01 01:56:59;;;;;;;;;;;21.30;99.90;;;;;;5075689;28;19909;-76
2022/03/01 01:59:25;;;;;;;;;;;21.30;99.90;;;;;;5075920;28;19909;-75
2022/03/01 02:01:52;;;;;;;;;;;21.30;99.90;;;;;;5075473;28;19928;-76
2022/03/01 02:04:19;;;;;;;;;;;21.40;99.90;;;;;;5075835;28;20003;-76
2022/03/01 02:06:52;;;;;;;;;;;21.50;99.90;;;;;;5077336;28;19962;-75
2022/03/01 02:09:19;;;;;;;;;;;21.70;99.90;;;;;;5076572;28;20330;-75
2022/03/01 02:11:45;;;;;;;;;;;21.70;99.90;;;;;;5075291;28;20336;-76
2022/03/01 02:14:12;;;;;;;;;;;21.80;99.90;;;;;;5075495;28;19909;-75
2022/03/01 02:16:39;;;;;;;;;;;21.70;99.90;;;;;;5075507;28;20318;-75
2022/03/01 02:19:06;;;;;;;;;;;21.90;99.90;;;;;;5075386;28;20329;-76
2022/03/01 02:21:33;;;;;;;;;;;21.90;99.90;;;;;;5075411;28;19909;-75
2022/03/01 02:24:00;;;;;;;;;;;21.90;99.90;;;;;;5075250;28;20362;-76
2022/03/01 02:26:27;;;;;;;;;;;21.80;99.90;;;;;;5075321;28;19966;-76
2022/03/01 02:28:54;;;;;;;;;;;21.70;99.90;;;;;;5075140;28;19919;-75
2022/03/01 02:31:20;;;;;;;;;;;21.60;99.90;;;;;;5074449;28;19961;-76
2022/03/01 02:33:47;;;;;;;;;;;21.60;99.90;;;;;;5075170;28;19912;-75
2022/03/01 02:36:14;;;;;;;;;;;21.70;99.90;;;;;;5075092;28;19936;-75
2022/03/01 02:38:40;;;;;;;;;;;21.50;99.90;;;;;;5075036;28;20215;-74
2022/03/01 02:41:07;;;;;;;;;;;21.40;99.90;;;;;;5075093;28;19915;-75
2022/03/01 02:43:34;;;;;;;;;;;21.40;99.90;;;;;;5074740;28;19961;-74
2022/03/01 02:46:00;;;;;;;;;;;21.30;99.90;;;;;;5074809;28;20061;-74
2022/03/01 02:48:27;;;;;;;;;;;21.30;99.90;;;;;;5074621;28;19908;-75
2022/03/01 02:50:53;;;;;;;;;;;21.30;99.90;;;;;;5074619;28;19909;-75
2022/03/01 02:53:20;;;;;;;;;;;21.40;99.90;;;;;;5074828;28;20350;-75
2022/03/01 02:55:47;;;;;;;;;;;21.30;99.90;;;;;;5074705;28;20002;-76
2022/03/01 02:58:13;;;;;;;;;;;21.10;99.90;;;;;;5074891;28;20035;-74
2022/03/01 03:00:40;;;;;;;;;;;21.00;99.90;;;;;;5074399;28;19919;-72
2022/03/01 03:03:07;;;;;;;;;;;21.00;99.90;;;;;;5074420;28;20014;-75
2022/03/01 03:05:33;;;;;;;;;;;21.10;99.90;;;;;;5074618;28;19962;-76
2022/03/01 03:08:00;;;;;;;;;;;21.00;99.90;;;;;;5074582;28;19945;-75
2022/03/01 03:10:27;;;;;;;;;;;21.00;99.90;;;;;;5074454;28;19913;-75
2022/03/01 03:12:54;;;;;;;;;;;21.10;99.90;;;;;;5074238;28;20385;-76
2022/03/01 03:15:20;;;;;;;;;;;21.10;99.90;;;;;;5074471;28;20358;-72
2022/03/01 03:17:49;;;;;;;;;;;21.20;99.90;;;;;;5074416;28;19912;-73
2022/03/01 03:20:15;;;;;;;;;;;21.10;99.90;;;;;;5074389;28;19962;-76
2022/03/01 03:22:42;;;;;;;;;;;21.30;99.90;;;;;;5074032;28;19916;-76
2022/03/01 03:25:09;;;;;;;;;;;21.40;99.90;;;;;;5074212;28;19973;-75
2022/03/01 03:27:35;;;;;;;;;;;21.50;99.90;;;;;;5074047;28;20354;-75
2022/03/01 03:30:03;;;;;;;;;;;21.60;99.90;;;;;;5074029;28;19915;-73
2022/03/01 03:32:30;;;;;;;;;;;21.70;99.90;;;;;;5073966;28;19999;-75
2022/03/01 03:34:56;;;;;;;;;;;21.70;99.90;;;;;;5073833;28;19909;-75
2022/03/01 03:37:23;;;;;;;;;;;21.70;99.90;;;;;;5073979;28;19999;-74
2022/03/01 03:39:50;;;;;;;;;;;21.70;99.90;;;;;;5073951;28;19909;-75
2022/03/01 03:42:16;;;;;;;;;;;21.70;99.90;;;;;;5072687;28;19913;-74
2022/03/01 03:44:43;;;;;;;;;;;21.50;99.90;;;;;;5073583;28;20007;-76
2022/03/01 03:47:10;;;;;;;;;;;21.40;99.90;;;;;;5073759;28;19909;-75
2022/03/01 03:49:37;;;;;;;;;;;21.30;99.90;;;;;;5073599;28;19948;-75
2022/03/01 03:52:04;;;;;;;;;;;21.30;99.90;;;;;;5073574;28;19909;-74
2022/03/01 03:54:31;;;;;;;;;;;21.10;99.90;;;;;;5073509;28;20003;-74
2022/03/01 03:56:57;;;;;;;;;;;20.90;99.90;;;;;;5073111;28;19917;-74
2022/03/01 03:59:24;;;;;;;;;;;20.70;99.90;;;;;;5073738;28;19931;-74
2022/03/01 04:01:51;;;;;;;;;;;20.70;99.90;;;;;;5073348;28;19970;-74
2022/03/01 04:04:18;;;;;;;;;;;20.60;99.90;;;;;;5073595;28;19978;-75
2022/03/01 04:06:44;;;;;;;;;;;20.70;99.90;;;;;;5073238;28;20355;-75
2022/03/01 04:09:11;;;;;;;;;;;20.80;99.90;;;;;;5073443;28;19908;-75
2022/03/01 04:11:38;;;;;;;;;;;20.80;99.90;;;;;;5073377;28;20367;-76
2022/03/01 04:14:05;;;;;;;;;;;20.90;99.90;;;;;;5073332;28;19915;-75
2022/03/01 04:16:31;;;;;;;;;;;20.80;99.90;;;;;;5073192;28;19908;-73
2022/03/01 04:18:58;;;;;;;;;;;20.90;99.90;;;;;;5072956;28;20024;-75
2022/03/01 04:21:25;;;;;;;;;;;21.00;99.90;;;;;;5073074;28;19954;-75
2022/03/01 04:23:51;;;;;;;;;;;21.10;99.90;;;;;;5073053;28;19924;-75
2022/03/01 04:26:18;;;;;;;;;;;21.20;99.90;;;;;;5073011;28;20012;-77
2022/03/01 04:28:45;;;;;;;;;;;21.20;99.90;;;;;;5072814;28;19908;-75
2022/03/01 04:31:12;;;;;;;;;;;21.30;99.90;;;;;;5073040;28;19991;-76
2022/03/01 04:33:38;;;;;;;;;;;21.20;99.90;;;;;;5072882;28;19991;-73
2022/03/01 04:36:06;;;;;;;;;;;21.30;99.90;;;;;;5072757;28;19912;-76
2022/03/01 04:38:33;;;;;;;;;;;21.20;99.90;;;;;;5073024;28;19939;-76
2022/03/01 04:40:59;;;;;;;;;;;21.20;99.90;;;;;;5072625;28;19993;-74
2022/03/01 04:43:26;;;;;;;;;;;21.10;99.90;;;;;;5072638;28;20328;-73
2022/03/01 04:45:53;;;;;;;;;;;21.10;99.90;;;;;;5072829;28;19912;-72
2022/03/01 04:48:23;;;;;;;;;;;21.00;99.90;;;;;;5072672;28;20396;-74
2022/03/01 04:50:50;;;;;;;;;;;21.00;99.90;;;;;;5072515;28;19947;-75
2022/03/01 04:53:17;;;;;;;;;;;21.00;99.90;;;;;;5072296;28;19915;-75
2022/03/01 04:55:44;;;;;;;;;;;21.00;99.90;;;;;;5072709;28;20017;-76
2022/03/01 04:58:11;;;;;;;;;;;21.10;99.90;;;;;;5072762;28;19916;-76
2022/03/01 05:00:38;;;;;;;;;;;21.10;99.90;;;;;;5072519;28;19908;-75
2022/03/01 05:03:10;;;;;;;;;;;21.00;99.90;;;;;;5071676;28;20137;-77
2022/03/01 05:05:36;;;;;;;;;;;20.90;99.90;;;;;;5072681;28;19916;-76
2022/03/01 05:08:03;;;;;;;;;;;21.00;99.90;;;;;;5072578;28;19909;-76
2022/03/01 05:10:30;;;;;;;;;;;20.90;99.90;;;;;;5072544;28;20365;-74
2022/03/01 05:12:59;;;;;;;;;;;21.00;99.90;;;;;;5072081;28;19908;-75
2022/03/01 05:15:26;;;;;;;;;;;21.00;99.90;;;;;;5072248;28;20003;-75
2022/03/01 05:17:54;;;;;;;;;;;21.10;99.90;;;;;;5072264;28;20397;-77
2022/03/01 05:20:21;;;;;;;;;;;21.10;99.90;;;;;;5072292;28;19913;-75
2022/03/01 05:22:48;;;;;;;;;;;21.10;99.90;;;;;;5072011;28;19917;-75
2022/03/01 05:25:16;;;;;;;;;;;21.20;99.90;;;;;;5072395;28;19977;-74
2022/03/01 05:27:43;;;;;;;;;;;21.20;99.90;;;;;;5072341;28;19915;-75
2022/03/01 05:30:11;;;;;;;;;;;21.20;99.90;;;;;;5072203;28;19916;-76
2022/03/01 05:32:39;;;;;;;;;;;21.20;99.90;;;;;;5072324;28;19924;-76
2022/03/01 05:35:09;;;;;;;;;;;21.30;99.90;;;;;;5072121;28;20323;-75
2022/03/01 05:37:37;;;;;;;;;;;21.30;99.90;;;;;;5072103;28;19938;-74
2022/03/01 05:40:04;;;;;;;;;;;21.30;99.90;;;;;;5072290;28;19909;-76
2022/03/01 05:42:31;;;;;;;;;;;21.30;99.90;;;;;;5072175;28;19917;-75
2022/03/01 05:44:59;;;;;;;;;;;21.30;99.90;;;;;;5072248;28;19912;-74
2022/03/01 05:47:26;;;;;;;;;;;21.40;99.90;;;;;;5071822;28;20399;-75
2022/03/01 05:49:56;;;;;;;;;;;21.30;99.90;;;;;;5072089;28;19908;-75
2022/03/01 05:52:23;;;;;;;;;;;21.30;99.90;;;;;;5069525;28;19912;-75
2022/03/01 05:54:49;;;;;;;;;;;21.40;99.90;;;;;;5069884;28;19909;-75
2022/03/01 05:57:16;;;;;;;;;;;21.40;99.90;;;;;;5070004;28;20007;-75
2022/03/01 05:59:43;;;;;;;;;;;21.40;99.90;;;;;;5069978;28;19909;-76
2022/03/01 06:02:10;;;;;;;;;;;21.60;99.90;;;;;;5069466;28;19931;-77
2022/03/01 06:04:37;;;;;;;;;;;21.50;99.90;;;;;;5069746;28;19958;-76
2022/03/01 06:07:04;;;;;;;;;;;21.60;99.90;;;;;;5073484;28;19909;-75
2022/03/01 06:09:30;;;;;;;;;;;21.60;99.90;;;;;;5073551;28;19944;-76
2022/03/01 06:11:57;;;;;;;;;;;21.70;99.90;;;;;;5073251;28;20377;-73
2022/03/01 06:14:23;;;;;;;;;;;21.60;99.90;;;;;;5073397;28;19959;-76
2022/03/01 06:16:50;;;;;;;;;;;21.60;99.90;;;;;;5073092;28;20367;-74
2022/03/01 06:19:17;;;;;;;;;;;21.60;99.90;;;;;;5073245;28;19944;-73
2022/03/01 06:21:43;;;;;;;;;;;21.50;99.90;;;;;;5073191;28;19961;-75
2022/03/01 06:24:11;;;;;;;;;;;21.00;99.90;;;;;;5072973;28;19951;-75
2022/03/01 06:26:37;;;;;;;;;;;20.70;99.90;;;;;;5072962;28;19939;-76
2022/03/01 06:29:05;;;;;;;;;;;20.50;99.90;;;;;;5073263;28;20354;-74
2022/03/01 06:31:32;;;;;;;;;;;20.30;99.90;;;;;;5072684;28;19909;-76
2022/03/01 06:33:59;;;;;;;;;;;20.30;99.90;;;;;;5073064;28;19970;-76
2022/03/01 06:36:26;;;;;;;;;;;20.30;99.90;;;;;;5072732;28;19908;-72
2022/03/01 06:38:52;;;;;;;;;;;20.20;99.90;;;;;;5072105;28;19916;-76
2022/03/01 06:41:19;;;;;;;;;;;20.10;99.90;;;;;;5072843;28;19912;-76
2022/03/01 06:43:46;;;;;;;;;;;20.10;99.90;;;;;;5072874;28;19920;-75
2022/03/01 06:46:13;;;;;;;;;;;20.20;99.90;;;;;;5072691;28;19960;-76
2022/03/01 06:48:40;;;;;;;;;;;20.30;99.90;;;;;;5072009;28;20371;-72
2022/03/01 06:51:07;;;;;;;;;;;20.30;99.90;;;;;;5072412;28;19957;-77
2022/03/01 06:53:35;;;;;;;;;;;20.30;99.90;;;;;;5072066;28;19915;-76
2022/03/01 06:56:01;;;;;;;;;;;20.40;99.90;;;;;;5072317;28;19916;-74
2022/03/01 06:58:28;;;;;;;;;;;20.50;99.90;;;;;;5072662;28;19912;-76
2022/03/01 07:00:56;;;;;;;;;;;20.50;99.90;;;;;;5072004;28;19927;-76
2022/03/01 07:03:23;;;;;;;;;;;20.50;99.90;;;;;;5071999;28;19917;-75
2022/03/01 07:05:50;;;;;;;;;;;20.50;99.90;;;;;;5072315;28;19909;-75
2022/03/01 07:08:20;;;;;;;;;;;20.50;99.90;;;;;;5071714;28;20420;-75
2022/03/01 07:10:47;;;;;;;;;;;20.60;99.90;;;;;;5072278;28;19913;-76
2022/03/01 07:13:14;;;;;;;;;;;20.60;99.90;;;;;;5104493;28;20413;-76
2022/03/01 07:15:41;;;;;;;;;;;20.60;99.90;;;;;;5071531;28;19913;-76
2022/03/01 07:18:07;;;;;;;;;;;20.60;99.90;;;;;;5071960;28;19912;-76
2022/03/01 07:20:37;;;;;;;;;;;20.70;99.90;;;;;;5072120;28;19913;-74
2022/03/01 07:23:05;;;;;;;;;;;20.70;99.90;;;;;;5071395;28;19917;-75
2022/03/01 07:25:32;;;;;;;;;;;20.70;99.90;;;;;;5072151;28;19920;-74
2022/03/01 07:27:58;;;;;;;;;;;20.70;99.90;;;;;;5071589;28;19912;-74
2022/03/01 07:30:27;;;;;;;;;;;20.90;99.90;;;;;;5071997;28;19912;-75
2022/03/01 07:32:56;;;;;;;;;;;20.90;99.90;;;;;;5081311;28;19962;-75
2022/03/01 07:35:24;;;;;;;;;;;20.90;99.90;;;;;;5071239;28;19912;-75
2022/03/01 07:37:51;;;;;;;;;;;20.90;99.90;;;;;;5071406;28;20325;-76
2022/03/01 07:40:18;;;;;;;;;;;20.90;99.90;;;;;;5071644;28;19909;-76
2022/03/01 07:42:45;;;;;;;;;;;21.00;99.90;;;;;;5071171;28;19916;-74
2022/03/01 07:45:12;;;;;;;;;;;21.10;99.90;;;;;;5071476;28;19962;-75
2022/03/01 07:47:39;;;;;;;;;;;21.10;99.90;;;;;;5071513;28;19915;-73
2022/03/01 07:50:06;;;;;;;;;;;21.20;99.90;;;;;;5071828;28;20042;-76
2022/03/01 07:52:33;;;;;;;;;;;21.20;99.90;;;;;;5071549;28;19912;-76
2022/03/01 07:55:00;;;;;;;;;;;21.30;99.90;;;;;;5070998;28;19920;-75
2022/03/01 07:57:26;;;;;;;;;;;21.10;99.90;;;;;;5071370;28;20282;-75
2022/03/01 07:59:53;;;;;;;;;;;20.90;99.90;;;;;;5071379;28;19913;-75
2022/03/01 08:02:19;;;;;;;;;;;20.80;99.90;;;;;;5070953;28;20019;-75
2022/03/01 08:04:46;;;;;;;;;;;20.60;99.90;;;;;;5071149;28;19966;-75
2022/03/01 08:07:13;;;;;;;;;;;20.60;99.90;;;;;;5073282;28;19936;-74
2022/03/01 08:09:40;;;;;;;;;;;20.50;99.90;;;;;;5073497;28;20359;-75
2022/03/01 08:12:07;;;;;;;;;;;20.60;99.90;;;;;;5073255;28;19908;-75
2022/03/01 08:14:35;;;;;;;;;;;20.60;99.90;;;;;;5073161;28;19908;-75
2022/03/01 08:17:02;;;;;;;;;;;20.60;99.90;;;;;;5072569;28;19934;-76
2022/03/01 08:19:29;;;;;;;;;;;20.60;99.90;;;;;;5073121;28;19908;-76
2022/03/01 08:21:56;;;;;;;;;;;20.60;99.90;;;;;;5076479;28;19920;-75
2022/03/01 08:24:22;;;;;;;;;;;20.50;99.90;;;;;;5093053;28;19908;-74
2022/03/01 08:26:49;;;;;;;;;;;20.50;99.90;;;;;;5092835;28;19908;-75
2022/03/01 08:29:19;;;;;;;;;;;20.60;99.90;;;;;;5092580;28;19908;-75
2022/03/01 08:31:46;;;;;;;;;;;20.60;99.90;;;;;;5092825;28;20263;-76
2022/03/01 08:34:14;;;;;;;;;;;20.60;99.90;;;;;;5093170;28;19995;-75
2022/03/01 08:36:40;;;;;;;;;;;20.60;99.90;;;;;;5092324;28;20019;-74
2022/03/01 08:39:07;;;;;;;;;;;20.50;99.90;;;;;;5092817;28;20374;-75
2022/03/01 08:41:34;;;;;;;;;;;20.50;99.90;;;;;;5092736;28;19939;-76
2022/03/01 08:44:00;;;;;;;;;;;20.60;99.90;;;;;;5092625;28;19916;-75
2022/03/01 08:46:27;;;;;;;;;;;20.50;99.90;;;;;;5092683;28;20389;-76
2022/03/01 08:48:54;;;;;;;;;;;20.50;99.90;;;;;;5092421;28;19919;-76
2022/03/01 08:51:21;;;;;;;;;;;20.60;99.90;;;;;;5092233;28;19919;-75
2022/03/01 08:53:48;;;;;;;;;;;20.50;99.90;;;;;;5092889;28;19987;-76
2022/03/01 08:56:15;;;;;;;;;;;20.50;99.90;;;;;;5093021;28;19930;-74
2022/03/01 08:58:45;;;;;;;;;;;20.40;99.90;;;;;;5092412;28;19911;-76
2022/03/01 09:01:12;;;;;;;;;;;20.40;99.90;;;;;;5092288;28;19920;-75
2022/03/01 09:03:39;;;;;;;;;;;20.30;99.90;;;;;;5092280;28;19917;-76
2022/03/01 09:06:06;;;;;;;;;;;20.40;99.90;;;;;;5079819;28;19909;-76
2022/03/01 09:08:34;;;;;;;;;;;20.40;99.90;;;;;;5071838;28;19908;-76
2022/03/01 09:11:01;;;;;;;;;;;20.40;99.90;;;;;;5072588;28;20283;-76
2022/03/01 09:13:27;;;;;;;;;;;20.50;99.90;;;;;;5072254;28;20003;-73
2022/03/01 09:15:54;;;;;;;;;;;20.60;99.90;;;;;;5072380;28;19970;-75
2022/03/01 09:18:21;;;;;;;;;;;20.60;99.90;;;;;;5072642;28;19958;-74
2022/03/01 09:20:48;;;;;;;;;;;20.60;99.90;;;;;;5072200;28;20363;-74
2022/03/01 09:23:15;;;;;;;;;;;20.60;99.90;;;;;;5072260;28;19916;-74
2022/03/01 09:25:41;;;;;;;;;;;20.60;99.90;;;;;;5072460;28;19909;-75
2022/03/01 09:28:08;;;;;;;;;;;20.60;99.90;;;;;;5072505;28;20277;-75
2022/03/01 09:30:35;;;;;;;;;;;20.50;99.90;;;;;;5072216;28;19978;-75
2022/03/01 09:33:02;;;;;;;;;;;20.60;99.90;;;;;;5072245;28;19962;-74
2022/03/01 09:35:29;;;;;;;;;;;20.60;99.90;;;;;;5072430;28;20050;-75
2022/03/01 09:37:55;;;;;;;;;;;20.60;99.90;;;;;;5072441;28;19912;-75
2022/03/01 09:40:22;;;;;;;;;;;20.70;99.90;;;;;;5075594;28;19915;-75
2022/03/01 09:42:51;;;;;;;;;;;20.70;99.90;;;;;;5075888;28;19912;-75
2022/03/01 09:45:18;;;;;;;;;;;20.70;99.90;;;;;;5076132;28;19912;-75
2022/03/01 09:47:44;;;;;;;;;;;20.90;99.90;;;;;;5076183;28;19909;-75
2022/03/01 09:50:12;;;;;;;;;;;20.90;99.90;;;;;;5076005;28;19961;-75
2022/03/01 09:52:39;;;;;;;;;;;21.00;99.90;;;;;;5075605;28;19954;-75
2022/03/01 09:55:06;;;;;;;;;;;21.00;99.90;;;;;;5076060;28;19908;-75
2022/03/01 09:57:33;;;;;;;;;;;21.10;99.90;;;;;;5076002;28;20042;-75
2022/03/01 10:00:00;;;;;;;;;;;21.10;99.90;;;;;;5108589;28;19908;-75
2022/03/01 10:02:33;;;;;;;;;;;21.00;99.90;;;;;;5075695;28;20354;-75
2022/03/01 10:05:01;;;;;;;;;;;21.00;99.90;;;;;;5075614;28;20410;-75
2022/03/01 10:07:29;;;;;;;;;;;20.90;99.90;;;;;;5076127;28;19977;-76
2022/03/01 10:10:06;;;;;;;;;;;20.90;99.90;;;;;;5075752;28;19908;-75
2022/03/01 10:12:33;;;;;;;;;;;20.90;99.90;;;;;;5075793;28;20041;-75
2022/03/01 10:15:06;;;;;;;;;;;21.00;99.90;;;;;;5075547;28;19952;-76
2022/03/01 10:17:34;;;;;;;;;;;21.10;99.90;;;;;;5075587;28;20007;-76
2022/03/01 10:20:07;;;;;;;;;;;21.10;99.90;;;;;;5075666;28;19923;-76
2022/03/01 10:22:37;;;;;;;;;;;21.10;99.90;;;;;;5075819;28;20313;-76
2022/03/01 10:25:05;;;;;;;;;;;21.20;99.90;;;;;;5075582;28;19908;-75
2022/03/01 10:27:32;;;;;;;;;;;21.20;99.90;;;;;;5075624;28;20003;-75
2022/03/01 10:29:59;;;;;;;;;;;21.20;99.90;;;;;;5075189;28;20282;-75
2022/03/01 10:32:26;;;;;;;;;;;21.30;99.90;;;;;;5075338;28;19963;-73
2022/03/01 10:34:56;;;;;;;;;;;21.30;99.90;;;;;;5075130;28;20362;-74
2022/03/01 10:37:27;;;;;;;;;;;21.40;99.90;;;;;;5074522;28;19931;-75
2022/03/01 10:40:09;;;;;;;;;;;21.30;99.90;;;;;;5075081;28;19995;-74
2022/03/01 10:42:35;;;;;;;;;;;21.20;99.90;;;;;;5075160;28;20019;-75
2022/03/01 10:45:02;;;;;;;;;;;20.90;99.90;;;;;;5074798;28;19915;-72
2022/03/01 10:47:29;;;;;;;;;;;20.70;99.90;;;;;;5075076;28;20289;-74
2022/03/01 10:50:02;;;;;;;;;;;20.50;99.90;;;;;;5074900;28;20324;-74
2022/03/01 10:52:46;;;;;;;;;;;20.40;99.90;;;;;;5073930;28;19909;-74
2022/03/01 10:55:27;;;;;;;;;;;20.20;99.90;;;;;;5074867;28;19915;-74
2022/03/01 10:58:00;;;;;;;;;;;20.20;99.90;;;;;;5074686;28;19936;-75
2022/03/01 11:00:27;;;;;;;;;;;20.20;99.90;;;;;;5074582;28;19915;-75
2022/03/01 11:02:54;;;;;;;;;;;20.10;99.90;;;;;;5074183;28;20359;-75
2022/03/01 11:05:21;;;;;;;;;;;20.00;99.90;;;;;;5074735;28;20358;-74
2022/03/01 11:07:50;;;;;;;;;;;20.00;99.90;;;;;;5073636;28;19909;-75
2022/03/01 11:10:17;;;;;;;;;;;20.00;99.90;;;;;;5074660;28;20049;-74
2022/03/01 11:12:46;;;;;;;;;;;20.00;99.90;;;;;;5074310;28;20336;-74
2022/03/01 11:15:21;;;;;;;;;;;20.00;99.90;;;;;;5074442;28;19908;-74
2022/03/01 11:17:52;;;;;;;;;;;20.00;99.90;;;;;;5074508;28;19914;-74
2022/03/01 11:20:24;;;;;;;;;;;19.90;99.90;;;;;;5074370;28;19919;-75
2022/03/01 11:22:57;;;;;;;;;;;19.90;99.90;;;;;;5073372;28;20014;-74
2022/03/01 11:25:27;;;;;;;;;;;20.00;99.90;;;;;;5074183;28;19909;-75
2022/03/01 11:28:05;;;;;;;;;;;20.00;99.90;;;;;;5074022;28;19914;-74
2022/03/01 11:30:33;;;;;;;;;;;20.00;99.90;;;;;;5073908;28;19950;-74
2022/03/01 11:32:59;;;;;;;;;;;20.10;99.90;;;;;;5073991;28;20371;-74
2022/03/01 11:35:28;;;;;;;;;;;20.20;99.90;;;;;;5074075;28;19999;-73
2022/03/01 11:38:07;;;;;;;;;;;20.30;99.90;;;;;;5073322;28;19936;-74
2022/03/01 11:40:36;;;;;;;;;;;20.40;99.90;;;;;;5073941;28;19908;-74
2022/03/01 11:43:09;;;;;;;;;;;20.40;99.90;;;;;;5073566;28;19916;-74
2022/03/01 11:45:36;;;;;;;;;;;20.40;99.90;;;;;;5073612;28;20382;-74
2022/03/01 11:48:14;;;;;;;;;;;20.40;99.90;;;;;;5073623;28;19908;-74
2022/03/01 11:50:48;;;;;;;;;;;20.50;99.90;;;;;;5073351;28;19912;-73
2022/03/01 11:53:18;;;;;;;;;;;20.50;99.90;;;;;;5073474;28;19909;-74
2022/03/01 11:55:50;;;;;;;;;;;20.50;99.90;;;;;;5073561;28;19919;-74
2022/03/01 11:58:18;;;;;;;;;;;20.50;99.90;;;;;;5073727;28;19909;-74
2022/03/01 12:00:44;;;;;;;;;;;20.60;99.90;;;;;;5073078;28;19908;-72
2022/03/01 12:03:13;;;;;;;;;;;20.60;99.90;;;;;;5072664;28;20306;-74
2022/03/01 12:05:40;;;;;;;;;;;20.60;99.90;;;;;;5073502;28;19944;-74
2022/03/01 12:08:07;;;;;;;;;;;20.60;99.90;;;;;;5073259;28;20007;-74
2022/03/01 12:10:34;;;;;;;;;;;20.60;99.90;;;;;;5073183;28;19962;-75
2022/03/01 12:13:05;;;;;;;;;;;20.70;99.90;;;;;;5073075;28;19920;-74
2022/03/01 12:15:33;;;;;;;;;;;20.70;99.90;;;;;;5073046;28;19938;-74
2022/03/01 12:18:19;;;;;;;;;;;20.70;99.90;;;;;;5073241;28;19940;-74
2022/03/01 12:20:46;;;;;;;;;;;20.60;99.90;;;;;;5072675;28;19916;-75
2022/03/01 12:23:24;;;;;;;;;;;20.70;99.90;;;;;;5072887;28;20286;-75
2022/03/01 12:25:51;;;;;;;;;;;20.60;99.90;;;;;;5073201;28;19920;-74
2022/03/01 12:28:20;;;;;;;;;;;20.70;99.90;;;;;;5072920;28;19995;-74
2022/03/01 12:30:47;;;;;;;;;;;20.70;99.90;;;;;;5072487;28;19983;-74
2022/03/01 12:33:15;;;;;;;;;;;20.60;99.90;;;;;;5072760;28;19913;-74
2022/03/01 12:35:42;;;;;;;;;;;20.60;99.90;;;;;;5072610;28;20255;-73
2022/03/01 12:38:13;;;;;;;;;;;20.60;99.90;;;;;;5072866;28;19908;-75
2022/03/01 12:40:42;;;;;;;;;;;20.60;99.90;;;;;;5072578;28;20331;-74
2022/03/01 12:43:09;;;;;;;;;;;20.60;99.90;;;;;;5072638;28;20286;-74
2022/03/01 12:45:40;;;;;;;;;;;20.60;99.90;;;;;;5072444;28;19996;-73
2022/03/01 12:48:08;;;;;;;;;;;20.70;99.90;;;;;;5071342;28;20007;-74
2022/03/01 12:50:35;;;;;;;;;;;20.70;99.90;;;;;;5072697;28;20386;-74
2022/03/01 12:53:02;;;;;;;;;;;20.70;99.90;;;;;;5072585;28;19977;-73
2022/03/01 12:55:29;;;;;;;;;;;20.60;99.90;;;;;;5072890;28;19916;-75
2022/03/01 12:57:55;;;;;;;;;;;20.60;99.90;;;;;;5072679;28;19909;-74
2022/03/01 13:00:23;;;;;;;;;;;20.50;99.90;;;;;;5072519;28;19916;-74
2022/03/01 13:02:53;;;;;;;;;;;20.60;99.90;;;;;;5072148;28;20425;-75
2022/03/01 13:05:27;;;;;;;;;;;20.60;99.90;;;;;;5072573;28;19971;-74
2022/03/01 13:07:55;;;;;;;;;;;20.60;99.90;;;;;;5072698;28;20443;-74
2022/03/01 13:10:29;;;;;;;;;;;20.60;99.90;;;;;;5072638;28;19920;-74
2022/03/01 13:12:55;;;;;;;;;;;20.60;99.90;;;;;;5072357;28;19913;-75
2022/03/01 13:15:23;;;;;;;;;;;20.60;99.90;;;;;;5071972;28;19999;-74
2022/03/01 13:17:53;;;;;;;;;;;20.60;99.90;;;;;;5072513;28;19915;-74
2022/03/01 13:20:21;;;;;;;;;;;20.60;99.90;;;;;;5072545;28;20014;-73
2022/03/01 13:23:01;;;;;;;;;;;20.60;99.90;;;;;;5072159;28;19924;-74
2022/03/01 13:25:28;;;;;;;;;;;20.50;99.90;;;;;;5072206;28;20282;-74
2022/03/01 13:27:55;;;;;;;;;;;20.50;99.90;;;;;;5072136;28;19931;-74
2022/03/01 13:30:22;;;;;;;;;;;20.50;99.90;;;;;;5072107;28;19908;-74
2022/03/01 13:32:50;;;;;;;;;;;20.50;99.90;;;;;;5072124;28;20006;-74
2022/03/01 13:35:17;;;;;;;;;;;20.40;99.90;;;;;;5072055;28;19916;-74
2022/03/01 13:37:44;;;;;;;;;;;20.40;99.90;;;;;;5072194;28;19999;-74
2022/03/01 13:40:10;;;;;;;;;;;20.40;99.90;;;;;;5072446;28;19912;-73
2022/03/01 13:42:38;;;;;;;;;;;20.30;99.90;;;;;;5072253;28;19916;-74
2022/03/01 13:45:09;;;;;;;;;;;20.30;99.90;;;;;;5071994;28;19909;-74
2022/03/01 13:47:37;;;;;;;;;;;20.30;99.90;;;;;;5072277;28;19908;-74
2022/03/01 13:50:07;;;;;;;;;;;20.40;99.90;;;;;;5072045;28;19916;-75
2022/03/01 13:52:44;;;;;;;;;;;20.40;99.90;;;;;;5072156;28;20248;-75
2022/03/01 13:55:11;;;;;;;;;;;20.40;99.90;;;;;;5072261;28;19912;-74
2022/03/01 13:57:39;;;;;;;;;;;20.50;99.90;;;;;;5072127;28;20025;-74
2022/03/01 14:00:08;;;;;;;;;;;20.50;99.90;;;;;;5071927;28;19908;-75
2022/03/01 14:02:35;;;;;;;;;;;20.60;99.90;;;;;;5071723;28;19960;-74
2022/03/01 14:05:11;;;;;;;;;;;20.60;99.90;;;;;;5071623;28;19913;-74
2022/03/01 14:07:38;;;;;;;;;;;20.70;99.90;;;;;;5071925;28;20321;-74
2022/03/01 14:10:05;;;;;;;;;;;20.70;99.90;;;;;;5071934;28;19934;-72
2022/03/01 14:12:39;;;;;;;;;;;20.80;99.90;;;;;;5071889;28;19908;-72
2022/03/01 14:15:07;;;;;;;;;;;20.60;99.90;;;;;;5071767;28;19938;-73
2022/03/01 14:17:34;;;;;;;;;;;20.50;99.90;;;;;;5070679;28;19908;-74
2022/03/01 14:20:01;;;;;;;;;;;20.50;99.90;;;;;;5071818;28;19912;-74